createdAt,value
2019-03-25T00:01:07.071Z,12.50
2019-03-25T00:03:42.815Z,13.30
2019-03-25T00:06:12.796Z,13.97
2019-03-25T00:08:42.426Z,14.03
2019-03-25T00:11:13.630Z,12.47
2019-03-25T00:13:43.567Z,12.40
2019-03-25T00:16:13.301Z,19.27
2019-03-25T00:18:43.350Z,10.33
2019-03-25T00:21:13.254Z,13.43
2019-03-25T00:23:42.922Z,16.83
2019-03-25T00:26:12.605Z,13.53
2019-03-25T00:28:42.548Z,14.93
2019-03-25T00:31:12.968Z,13.33
2019-03-25T00:33:43.855Z,12.00
2019-03-25T00:36:13.568Z,10.73
2019-03-25T00:38:43.484Z,19.30
2019-03-25T00:41:13.239Z,18.50
2019-03-25T00:43:42.899Z,18.63
2019-03-25T00:46:12.538Z,15.07
2019-03-25T00:48:42.215Z,15.67
2019-03-25T00:51:11.906Z,16.00
2019-03-25T00:53:41.561Z,22.67
2019-03-25T00:56:11.246Z,14.80
2019-03-25T00:58:40.903Z,16.13
2019-03-25T01:01:10.557Z,9.80
2019-03-25T01:03:40.228Z,15.87
2019-03-25T01:06:10.351Z,18.80
2019-03-25T01:08:40.023Z,23.30
2019-03-25T01:11:09.760Z,14.73
2019-03-25T01:13:39.467Z,15.27
2019-03-25T01:16:09.214Z,18.90
2019-03-25T01:18:40.874Z,21.80
2019-03-25T01:21:10.531Z,22.90
2019-03-25T01:23:40.249Z,13.83
2019-03-25T01:26:09.890Z,23.63
2019-03-25T01:28:39.622Z,21.80
2019-03-25T01:31:10.155Z,25.90
2019-03-25T01:33:39.812Z,23.70
2019-03-25T01:36:09.564Z,12.80
2019-03-25T01:38:39.245Z,17.53
2019-03-25T01:41:08.918Z,10.43
2019-03-25T01:43:38.998Z,18.87
2019-03-25T01:46:10.992Z,13.47
2019-03-25T01:48:40.660Z,11.40
2019-03-25T01:51:10.319Z,15.73
2019-03-25T01:53:39.965Z,16.23
2019-03-25T01:56:09.650Z,10.40
2019-03-25T01:58:39.315Z,24.73
2019-03-25T02:01:08.956Z,17.70
2019-03-25T02:03:38.623Z,12.43
2019-03-25T02:06:08.315Z,21.87
2019-03-25T02:08:39.089Z,16.20
2019-03-25T02:11:11.481Z,12.60
2019-03-25T02:13:52.869Z,16.73
2019-03-25T02:16:22.627Z,20.30
2019-03-25T02:18:53.311Z,17.27
2019-03-25T02:21:25.333Z,15.40
2019-03-25T02:24:01.411Z,13.87
2019-03-25T02:26:31.633Z,16.70
2019-03-25T02:29:01.273Z,20.93
2019-03-25T02:31:30.855Z,18.77
2019-03-25T02:34:00.828Z,19.53
2019-03-25T02:36:30.778Z,28.90
2019-03-25T02:39:00.793Z,21.70
2019-03-25T02:41:30.497Z,14.90
2019-03-25T02:44:00.330Z,20.23
2019-03-25T02:46:31.509Z,19.27
2019-03-25T02:49:02.994Z,29.27
2019-03-25T02:51:32.548Z,11.17
2019-03-25T02:54:02.314Z,22.37
2019-03-25T02:56:32.031Z,26.40
2019-03-25T02:59:01.689Z,19.13
2019-03-25T03:01:32.930Z,30.23
2019-03-25T03:04:02.586Z,22.27
2019-03-25T03:06:32.178Z,28.03
2019-03-25T03:09:01.858Z,31.67
2019-03-25T03:11:33.379Z,28.00
2019-03-25T03:14:03.121Z,23.87
2019-03-25T03:16:32.850Z,22.13
2019-03-25T03:19:05.267Z,20.10
2019-03-25T03:21:35.047Z,23.23
2019-03-25T03:24:04.989Z,28.37
2019-03-25T03:26:34.692Z,16.47
2019-03-25T03:29:04.358Z,12.73
2019-03-25T03:31:35.288Z,18.50
2019-03-25T03:34:06.124Z,19.87
2019-03-25T03:36:35.885Z,16.40
2019-03-25T03:39:06.628Z,30.07
2019-03-25T03:41:36.551Z,16.00
2019-03-25T03:44:10.032Z,23.03
2019-03-25T03:46:39.514Z,17.07
2019-03-25T03:49:09.145Z,24.17
2019-03-25T03:51:38.844Z,13.40
2019-03-25T03:54:09.259Z,14.87
2019-03-25T03:56:39.030Z,26.80
2019-03-25T03:59:08.799Z,27.97
2019-03-25T04:01:38.715Z,22.53
2019-03-25T04:04:11.440Z,18.37
2019-03-25T04:06:41.114Z,12.67
2019-03-25T04:09:12.181Z,25.00
2019-03-25T04:11:41.836Z,28.90
2019-03-25T04:14:12.886Z,27.53
2019-03-25T04:16:42.612Z,22.90
2019-03-25T04:19:12.192Z,17.37
2019-03-25T04:21:41.780Z,23.90
2019-03-25T04:24:11.422Z,19.13
2019-03-25T04:26:43.596Z,31.97
2019-03-25T04:29:14.107Z,24.70
2019-03-25T04:31:43.742Z,11.93
2019-03-25T04:34:13.414Z,14.40
2019-03-25T04:36:43.043Z,12.40
2019-03-25T04:39:12.688Z,18.63
2019-03-25T04:41:42.331Z,17.63
2019-03-25T04:44:12.961Z,20.03
2019-03-25T04:46:42.875Z,14.57
2019-03-25T04:49:13.591Z,22.60
2019-03-25T04:51:44.882Z,20.20
2019-03-25T04:54:14.689Z,21.77
2019-03-25T04:56:44.505Z,17.03
2019-03-25T04:59:22.250Z,19.30
2019-03-25T05:01:54.217Z,23.23
2019-03-25T05:04:23.854Z,19.70
2019-03-25T05:07:14.772Z,21.67
2019-03-25T05:09:44.794Z,31.10
2019-03-25T05:12:35.724Z,21.90
2019-03-25T05:15:06.186Z,23.87
2019-03-25T05:17:36.090Z,24.33
2019-03-25T05:20:06.519Z,21.93
2019-03-25T05:22:36.244Z,16.40
2019-03-25T05:25:06.095Z,26.03
2019-03-25T05:27:35.917Z,28.37
2019-03-25T05:30:05.950Z,17.23
2019-03-25T05:32:35.597Z,35.70
2019-03-25T05:35:05.428Z,23.43
2019-03-25T05:37:35.057Z,27.80
2019-03-25T05:40:05.061Z,27.53
2019-03-25T05:42:34.695Z,14.50
2019-03-25T05:45:04.289Z,21.60
2019-03-25T05:47:33.939Z,21.03
2019-03-25T05:50:03.617Z,27.70
2019-03-25T05:52:34.443Z,27.03
2019-03-25T05:55:04.488Z,18.77
2019-03-25T05:57:33.975Z,24.77
2019-03-25T06:00:03.682Z,21.60
2019-03-25T06:02:33.327Z,19.40
2019-03-25T06:05:02.965Z,21.40
2019-03-25T06:07:32.617Z,17.37
2019-03-25T06:10:02.251Z,17.13
2019-03-25T06:12:31.866Z,16.90
2019-03-25T06:15:01.527Z,18.80
2019-03-25T06:17:39.947Z,10.13
2019-03-25T06:20:11.173Z,14.60
2019-03-25T06:22:40.878Z,10.33
2019-03-25T06:25:10.515Z,18.73
2019-03-25T06:27:40.237Z,13.10
2019-03-25T06:30:10.692Z,19.47
2019-03-25T06:32:40.271Z,9.60
2019-03-25T06:35:09.964Z,20.07
2019-03-25T06:37:39.656Z,14.50
2019-03-25T06:40:09.602Z,18.13
2019-03-25T06:42:39.273Z,21.83
2019-03-25T06:45:11.474Z,11.87
2019-03-25T06:47:41.146Z,16.83
2019-03-25T06:50:12.160Z,12.87
2019-03-25T06:52:42.669Z,15.07
2019-03-25T06:55:12.323Z,19.40
2019-03-25T06:57:41.941Z,20.33
2019-03-25T07:00:12.629Z,20.87
2019-03-25T07:02:43.353Z,23.13
2019-03-25T07:05:13.824Z,16.90
2019-03-25T07:07:43.473Z,25.00
2019-03-25T07:10:13.533Z,21.30
2019-03-25T07:12:46.175Z,21.73
2019-03-25T07:15:18.907Z,20.57
2019-03-25T07:17:48.589Z,17.03
2019-03-25T07:20:18.217Z,25.33
2019-03-25T07:22:47.896Z,9.97
2019-03-25T07:25:17.542Z,6.93
2019-03-25T07:27:47.114Z,13.00
2019-03-25T07:30:17.170Z,11.17
2019-03-25T07:32:47.216Z,21.63
2019-03-25T07:35:16.932Z,17.27
2019-03-25T07:37:50.215Z,20.30
2019-03-25T07:40:19.930Z,20.13
2019-03-25T07:42:49.582Z,26.80
2019-03-25T07:45:19.414Z,25.93
2019-03-25T07:47:49.074Z,18.93
2019-03-25T07:50:24.436Z,28.43
2019-03-25T07:52:54.103Z,17.83
2019-03-25T07:55:24.968Z,18.37
2019-03-25T07:58:03.820Z,19.07
2019-03-25T08:00:33.535Z,15.00
2019-03-25T08:03:03.254Z,17.80
2019-03-25T08:05:33.115Z,16.13
2019-03-25T08:08:02.799Z,17.80
2019-03-25T08:10:39.047Z,18.30
2019-03-25T08:13:08.951Z,11.90
2019-03-25T08:15:38.683Z,26.30
2019-03-25T08:18:10.979Z,15.03
2019-03-25T08:20:40.729Z,19.33
2019-03-25T08:23:12.984Z,15.87
2019-03-25T08:25:42.715Z,9.30
2019-03-25T08:28:12.426Z,23.67
2019-03-25T08:30:42.737Z,15.17
2019-03-25T08:33:12.585Z,11.67
2019-03-25T08:35:42.254Z,15.60
2019-03-25T08:38:12.221Z,11.93
2019-03-25T08:40:43.507Z,20.07
2019-03-25T08:43:13.191Z,9.53
2019-03-25T08:45:44.627Z,12.17
2019-03-25T08:48:14.413Z,24.13
2019-03-25T08:50:44.027Z,30.50
2019-03-25T08:53:13.676Z,14.60
2019-03-25T08:55:48.724Z,21.37
2019-03-25T08:58:18.428Z,19.90
2019-03-25T09:00:48.391Z,16.17
2019-03-25T09:03:17.965Z,28.63
2019-03-25T09:05:47.872Z,10.87
2019-03-25T09:08:17.630Z,17.30
2019-03-25T09:10:47.344Z,19.90
2019-03-25T09:13:17.058Z,28.37
2019-03-25T09:15:48.292Z,14.70
2019-03-25T09:18:18.002Z,15.27
2019-03-25T09:20:47.674Z,26.23
2019-03-25T09:23:19.039Z,22.07
2019-03-25T09:25:48.752Z,15.93
2019-03-25T09:28:24.257Z,14.80
2019-03-25T09:31:11.727Z,14.30
2019-03-25T09:33:43.441Z,18.63
2019-03-25T09:36:15.573Z,25.27
2019-03-25T09:38:47.882Z,9.97
2019-03-25T09:41:17.699Z,22.50
2019-03-25T09:43:53.351Z,15.17
2019-03-25T09:46:25.555Z,8.23
2019-03-25T09:48:55.416Z,15.37
2019-03-25T09:51:26.625Z,13.20
2019-03-25T09:53:57.379Z,12.23
2019-03-25T09:56:29.382Z,13.90
2019-03-25T09:58:59.033Z,19.80
2019-03-25T10:01:28.711Z,11.43
2019-03-25T10:03:58.380Z,14.40
2019-03-25T10:06:27.998Z,12.23
2019-03-25T10:08:57.679Z,16.60
2019-03-25T10:11:28.146Z,12.83
2019-03-25T10:13:57.778Z,15.30
2019-03-25T10:16:27.466Z,11.37
2019-03-25T10:18:57.148Z,14.93
2019-03-25T10:21:28.178Z,8.87
2019-03-25T10:23:57.955Z,20.87
2019-03-25T10:26:27.638Z,15.93
2019-03-25T10:28:59.188Z,16.17
2019-03-25T10:31:29.046Z,10.77
2019-03-25T10:33:59.999Z,19.77
2019-03-25T10:36:31.854Z,8.57
2019-03-25T10:39:01.562Z,18.93
2019-03-25T10:41:32.557Z,19.13
2019-03-25T10:44:02.313Z,15.20
2019-03-25T10:46:32.019Z,16.27
2019-03-25T10:49:01.651Z,14.57
2019-03-25T10:51:32.168Z,14.60
2019-03-25T10:54:01.835Z,29.87
2019-03-25T10:56:31.583Z,14.10
2019-03-25T10:59:01.218Z,7.43
2019-03-25T11:01:30.923Z,17.63
2019-03-25T11:04:00.576Z,13.63
2019-03-25T11:06:30.271Z,9.00
2019-03-25T11:09:00.760Z,15.93
2019-03-25T11:11:30.417Z,11.00
2019-03-25T11:14:00.059Z,7.27
2019-03-25T11:16:29.701Z,8.43
2019-03-25T11:18:59.478Z,20.77
2019-03-25T11:21:33.852Z,13.53
2019-03-25T11:24:03.817Z,9.10
2019-03-25T11:26:33.512Z,28.43
2019-03-25T11:29:08.320Z,10.03
2019-03-25T11:31:38.010Z,10.10
2019-03-25T11:34:07.691Z,11.83
2019-03-25T11:36:37.799Z,14.70
2019-03-25T11:39:08.346Z,10.70
2019-03-25T11:41:38.114Z,14.10
2019-03-25T11:44:10.979Z,16.17
2019-03-25T11:46:40.691Z,12.57
2019-03-25T11:49:10.439Z,9.30
2019-03-25T11:51:40.557Z,20.70
2019-03-25T11:54:11.117Z,7.97
2019-03-25T11:56:40.923Z,19.73
2019-03-25T11:59:18.592Z,14.90
2019-03-25T12:01:45.985Z,11.53
2019-03-25T12:04:15.823Z,12.33
2019-03-25T12:06:46.300Z,12.30
2019-03-25T12:09:17.096Z,26.53
2019-03-25T12:11:46.726Z,21.63
2019-03-25T12:14:16.441Z,22.00
2019-03-25T12:16:46.083Z,22.57
2019-03-25T12:19:15.899Z,23.17
2019-03-25T12:21:45.556Z,9.57
2019-03-25T12:24:15.227Z,9.43
2019-03-25T12:26:45.819Z,8.67
2019-03-25T12:29:16.031Z,12.33
2019-03-25T12:31:45.759Z,13.30
2019-03-25T12:34:17.146Z,17.60
2019-03-25T12:36:46.838Z,8.00
2019-03-25T12:39:16.622Z,8.37
2019-03-25T12:41:47.441Z,13.10
2019-03-25T12:44:17.178Z,9.47
2019-03-25T12:46:46.990Z,15.30
2019-03-25T12:49:17.522Z,30.60
2019-03-25T12:51:49.020Z,13.77
2019-03-25T12:54:18.676Z,11.13
2019-03-25T12:56:48.341Z,17.00
2019-03-25T12:59:18.393Z,10.33
2019-03-25T13:01:53.113Z,29.23
2019-03-25T13:04:20.101Z,14.20
2019-03-25T13:06:49.898Z,27.47
2019-03-25T13:09:19.972Z,9.07
2019-03-25T13:11:49.681Z,14.97
2019-03-25T13:14:21.153Z,15.53
2019-03-25T13:16:50.798Z,10.20
2019-03-25T13:19:21.229Z,20.00
2019-03-25T13:21:50.852Z,26.93
2019-03-25T13:24:24.047Z,27.90
2019-03-25T13:26:53.679Z,17.50
2019-03-25T13:29:23.322Z,19.77
2019-03-25T13:31:53.451Z,13.93
2019-03-25T13:34:23.119Z,21.83
2019-03-25T13:36:52.834Z,16.93
2019-03-25T13:39:22.566Z,13.10
2019-03-25T13:41:52.219Z,18.13
2019-03-25T13:44:23.352Z,18.83
2019-03-25T13:46:53.034Z,26.50
2019-03-25T13:49:23.380Z,18.50
2019-03-25T13:51:53.020Z,26.43
2019-03-25T13:54:24.710Z,15.23
2019-03-25T13:56:54.348Z,12.03
2019-03-25T13:59:23.991Z,21.87
2019-03-25T14:01:53.644Z,4.93
2019-03-25T14:04:23.308Z,15.30
2019-03-25T14:06:53.036Z,23.17
2019-03-25T14:09:22.704Z,23.97
2019-03-25T14:11:52.346Z,11.33
2019-03-25T14:14:21.996Z,7.53
2019-03-25T14:17:10.812Z,16.67
2019-03-25T14:19:40.541Z,16.27
2019-03-25T14:22:11.106Z,17.23
2019-03-25T14:24:40.776Z,24.37
2019-03-25T14:27:14.881Z,23.53
2019-03-25T14:29:48.932Z,19.90
2019-03-25T14:32:20.554Z,20.40
2019-03-25T14:34:52.306Z,15.47
2019-03-25T14:37:24.237Z,22.67
2019-03-25T14:39:55.221Z,25.93
2019-03-25T14:42:24.859Z,7.77
2019-03-25T14:44:54.815Z,26.50
2019-03-25T14:47:26.767Z,19.97
2019-03-25T14:49:56.407Z,12.27
2019-03-25T14:52:26.099Z,11.23
2019-03-25T14:54:55.903Z,10.87
2019-03-25T14:57:27.992Z,19.87
2019-03-25T14:59:59.121Z,25.00
2019-03-25T15:02:28.825Z,17.30
2019-03-25T15:04:58.467Z,16.77
2019-03-25T15:07:28.169Z,15.93
2019-03-25T15:09:57.794Z,11.43
2019-03-25T15:12:27.418Z,19.70
2019-03-25T15:14:57.130Z,23.90
2019-03-25T15:17:26.794Z,15.33
2019-03-25T15:19:58.892Z,19.70
2019-03-25T15:22:28.902Z,17.93
2019-03-25T15:24:58.478Z,19.87
2019-03-25T15:27:28.371Z,13.50
2019-03-25T15:29:58.036Z,22.07
2019-03-25T15:32:27.684Z,22.47
2019-03-25T15:34:57.411Z,34.63
2019-03-25T15:37:29.018Z,17.80
2019-03-25T15:39:58.676Z,13.30
2019-03-25T15:42:28.373Z,31.63
2019-03-25T15:44:58.114Z,21.27
2019-03-25T15:47:27.826Z,18.67
2019-03-25T15:49:57.591Z,17.50
2019-03-25T15:52:27.343Z,25.40
2019-03-25T15:54:57.034Z,19.30
2019-03-25T15:57:27.039Z,15.60
2019-03-25T15:59:56.639Z,20.60
2019-03-25T16:02:26.282Z,29.83
2019-03-25T16:04:55.987Z,17.63
2019-03-25T16:07:26.049Z,9.13
2019-03-25T16:09:55.767Z,33.10
2019-03-25T16:12:25.433Z,33.03
2019-03-25T16:14:55.105Z,22.63
2019-03-25T16:17:25.184Z,25.93
2019-03-25T16:19:54.963Z,15.70
2019-03-25T16:22:24.602Z,31.50
2019-03-25T16:24:54.270Z,21.40
2019-03-25T16:27:23.850Z,27.37
2019-03-25T16:29:55.674Z,27.67
2019-03-25T16:32:27.146Z,34.50
2019-03-25T16:34:57.199Z,24.23
2019-03-25T16:37:26.940Z,29.30
2019-03-25T16:39:56.647Z,21.77
2019-03-25T16:42:26.251Z,30.23
2019-03-25T16:44:57.037Z,35.27
2019-03-25T16:47:26.710Z,22.10
2019-03-25T16:49:56.487Z,28.67
2019-03-25T16:52:26.116Z,33.40
2019-03-25T16:54:56.165Z,35.80
2019-03-25T16:57:25.832Z,23.60
2019-03-25T16:59:55.577Z,27.83
2019-03-25T17:02:25.335Z,26.80
2019-03-25T17:04:55.007Z,26.53
2019-03-25T17:07:25.867Z,33.67
2019-03-25T17:09:55.647Z,35.53
2019-03-25T17:12:26.741Z,37.20
2019-03-25T17:14:56.401Z,28.83
2019-03-25T17:17:26.090Z,43.87
2019-03-25T17:19:56.726Z,53.63
2019-03-25T17:22:26.327Z,41.80
2019-03-25T17:25:03.007Z,39.90
2019-03-25T17:27:32.623Z,16.53
2019-03-25T17:30:02.263Z,50.17
2019-03-25T17:32:33.366Z,33.13
2019-03-25T17:35:03.109Z,22.17
2019-03-25T17:37:37.407Z,37.43
2019-03-25T17:40:07.760Z,33.03
2019-03-25T17:42:37.779Z,36.20
2019-03-25T17:45:08.761Z,33.37
2019-03-25T17:47:38.444Z,24.50
2019-03-25T17:50:13.954Z,36.23
2019-03-25T17:52:46.902Z,41.33
2019-03-25T17:55:18.219Z,45.83
2019-03-25T17:57:48.736Z,41.23
2019-03-25T18:00:36.756Z,25.43
2019-03-25T18:03:11.087Z,44.40
2019-03-25T18:05:37.839Z,42.07
2019-03-25T18:08:07.459Z,51.23
2019-03-25T18:10:37.550Z,34.77
2019-03-25T18:13:07.292Z,28.13
2019-03-25T18:15:37.874Z,36.80
2019-03-25T18:18:07.911Z,47.90
2019-03-25T18:20:40.364Z,48.10
2019-03-25T18:23:11.118Z,40.37
2019-03-25T18:25:40.882Z,39.90
2019-03-25T18:28:10.883Z,50.33
2019-03-25T18:30:42.474Z,26.30
2019-03-25T18:33:14.295Z,46.00
2019-03-25T18:36:03.513Z,44.73
2019-03-25T18:38:34.375Z,46.83
2019-03-25T18:41:07.061Z,48.03
2019-03-25T18:43:36.775Z,50.37
2019-03-25T18:46:06.446Z,33.10
2019-03-25T18:48:36.106Z,45.53
2019-03-25T18:51:05.806Z,34.17
2019-03-25T18:53:35.860Z,45.33
2019-03-25T18:56:06.041Z,35.83
2019-03-25T18:58:35.814Z,29.97
2019-03-25T19:01:05.605Z,22.27
2019-03-25T19:03:35.270Z,41.70
2019-03-25T19:06:05.128Z,47.73
2019-03-25T19:08:34.895Z,48.17
2019-03-25T19:11:05.016Z,48.40
2019-03-25T19:13:38.104Z,44.73
2019-03-25T19:16:07.861Z,40.57
2019-03-25T19:18:37.641Z,45.20
2019-03-25T19:21:11.813Z,36.53
2019-03-25T19:23:42.365Z,41.30
2019-03-25T19:26:12.356Z,39.07
2019-03-25T19:28:43.197Z,33.27
2019-03-25T19:31:13.401Z,33.33
2019-03-25T19:33:44.518Z,26.17
2019-03-25T19:36:14.899Z,35.90
2019-03-25T19:38:45.279Z,22.40
2019-03-25T19:41:15.183Z,28.80
2019-03-25T19:43:46.169Z,34.60
2019-03-25T19:46:16.312Z,32.60
2019-03-25T19:48:46.034Z,13.40
2019-03-25T19:51:16.735Z,33.17
2019-03-25T19:53:48.764Z,36.80
2019-03-25T19:56:18.412Z,30.00
2019-03-25T19:58:49.886Z,30.20
2019-03-25T20:01:19.633Z,26.10
2019-03-25T20:03:49.375Z,27.40
2019-03-25T20:06:26.152Z,29.03
2019-03-25T20:08:52.990Z,28.43
2019-03-25T20:11:22.753Z,24.13
2019-03-25T20:13:52.508Z,22.63
2019-03-25T20:16:22.260Z,19.10
2019-03-25T20:18:54.509Z,31.03
2019-03-25T20:21:24.151Z,21.50
2019-03-25T20:23:55.762Z,25.93
2019-03-25T20:26:25.795Z,33.80
2019-03-25T20:28:56.490Z,22.53
2019-03-25T20:31:27.497Z,28.47
2019-03-25T20:34:10.753Z,42.63
2019-03-25T20:36:36.322Z,34.20
2019-03-25T20:39:09.770Z,23.70
2019-03-25T20:41:39.523Z,33.10
2019-03-25T20:44:11.490Z,19.20
2019-03-25T20:46:42.374Z,12.97
2019-03-25T20:49:12.315Z,31.17
2019-03-25T20:51:42.060Z,31.83
2019-03-25T20:54:12.119Z,33.73
2019-03-25T20:56:41.877Z,29.53
2019-03-25T20:59:13.646Z,22.83
2019-03-25T21:01:43.929Z,24.47
2019-03-25T21:04:13.671Z,32.67
2019-03-25T21:06:43.442Z,38.27
2019-03-25T21:09:14.006Z,37.63
2019-03-25T21:11:43.725Z,32.53
2019-03-25T21:14:15.182Z,23.43
2019-03-25T21:16:44.891Z,30.67
2019-03-25T21:19:16.626Z,16.80
2019-03-25T21:21:47.463Z,29.93
2019-03-25T21:24:17.201Z,22.83
2019-03-25T21:26:46.858Z,21.43
2019-03-25T21:29:17.013Z,14.73
2019-03-25T21:31:46.643Z,29.40
2019-03-25T21:34:17.821Z,35.13
2019-03-25T21:36:47.629Z,9.67
2019-03-25T21:39:19.186Z,23.17
2019-03-25T21:41:49.855Z,23.27
2019-03-25T21:44:19.591Z,27.73
2019-03-25T21:46:50.316Z,24.47
2019-03-25T21:49:21.024Z,19.03
2019-03-25T21:51:50.710Z,12.27
2019-03-25T21:54:20.446Z,17.13
2019-03-25T21:56:52.322Z,15.73
2019-03-25T21:59:21.964Z,9.70
2019-03-25T22:01:53.229Z,8.87
2019-03-25T22:04:22.793Z,6.80
2019-03-25T22:06:52.487Z,9.30
2019-03-25T22:09:22.195Z,14.63
2019-03-25T22:11:51.810Z,9.90
2019-03-25T22:14:22.292Z,13.50
2019-03-25T22:16:51.939Z,25.43
2019-03-25T22:19:21.595Z,18.00
2019-03-25T22:21:51.377Z,29.27
2019-03-25T22:24:21.359Z,26.17
2019-03-25T22:26:51.067Z,21.40
2019-03-25T22:29:20.823Z,27.43
2019-03-25T22:31:50.471Z,20.17
2019-03-25T22:34:20.429Z,29.83
2019-03-25T22:36:50.176Z,17.90
2019-03-25T22:39:21.936Z,18.40
2019-03-25T22:41:51.837Z,15.77
2019-03-25T22:44:21.474Z,13.43
2019-03-25T22:46:51.103Z,21.50
2019-03-25T22:49:23.139Z,25.13
2019-03-25T22:51:52.845Z,23.50
2019-03-25T22:54:22.479Z,23.87
2019-03-25T22:56:56.020Z,20.27
2019-03-25T22:59:27.857Z,17.27
2019-03-25T23:01:57.592Z,13.83
2019-03-25T23:04:29.895Z,13.73
2019-03-25T23:06:59.577Z,16.50
2019-03-25T23:09:29.186Z,12.73
2019-03-25T23:11:58.837Z,14.67
2019-03-25T23:14:28.575Z,14.70
2019-03-25T23:16:58.301Z,14.80
2019-03-25T23:19:28.047Z,10.03
2019-03-25T23:21:57.684Z,11.43
2019-03-25T23:24:27.410Z,19.07
2019-03-25T23:26:57.056Z,13.80
2019-03-25T23:29:26.661Z,16.10
2019-03-25T23:31:56.431Z,27.33
2019-03-25T23:34:26.134Z,18.03
2019-03-25T23:36:58.767Z,11.90
2019-03-25T23:39:28.404Z,15.70
2019-03-25T23:41:58.100Z,22.27
2019-03-25T23:44:27.878Z,20.17
2019-03-25T23:46:59.097Z,11.03
2019-03-25T23:49:30.000Z,20.53
2019-03-25T23:52:02.649Z,23.10
2019-03-25T23:54:32.581Z,18.93
2019-03-25T23:57:02.192Z,20.00
2019-03-25T23:59:31.881Z,19.60
